createdAt,value
2023-10-07T00:00:25.249Z,12.363158
2023-10-07T00:05:25.238Z,12.100000
2023-10-07T00:10:25.273Z,11.988235
2023-10-07T00:15:25.289Z,11.856522
2023-10-07T00:20:25.349Z,11.820833
2023-10-07T00:25:37.397Z,11.947619
2023-10-07T00:30:25.254Z,11.909524
2023-10-07T00:35:25.405Z,11.871429
2023-10-07T00:40:25.314Z,11.813043
2023-10-07T00:45:25.316Z,11.638095
2023-10-07T00:50:25.261Z,11.595238
2023-10-07T00:55:25.404Z,11.373913
2023-10-07T01:00:25.681Z,10.866667
2023-10-07T01:05:25.297Z,10.681818
2023-10-07T01:10:37.424Z,10.660000
2023-10-07T01:15:25.544Z,10.552381
2023-10-07T01:20:25.351Z,10.468421
2023-10-07T01:25:25.144Z,10.447826
2023-10-07T01:30:37.274Z,10.550000
2023-10-07T01:35:37.509Z,10.568182
2023-10-07T01:40:25.304Z,10.740000
2023-10-07T01:45:25.286Z,10.895000
2023-10-07T01:50:25.293Z,10.993333
2023-10-07T01:55:25.165Z,11.018182
2023-10-07T02:00:25.246Z,10.981818
2023-10-07T02:05:37.284Z,10.975000
2023-10-07T02:10:25.230Z,10.890000
2023-10-07T02:15:25.302Z,10.813043
2023-10-07T02:20:37.186Z,10.747368
2023-10-07T02:25:25.194Z,10.595238
2023-10-07T02:30:25.255Z,10.435000
2023-10-07T02:35:25.310Z,10.365000
2023-10-07T02:40:25.238Z,10.417391
2023-10-07T02:45:25.443Z,10.358333
2023-10-07T02:50:37.251Z,10.714286
2023-10-07T02:55:25.274Z,10.790000
2023-10-07T03:00:25.232Z,10.622727
2023-10-07T03:05:25.203Z,10.495652
2023-10-07T03:10:37.367Z,10.377273
2023-10-07T03:15:25.257Z,10.330435
2023-10-07T03:20:25.560Z,10.341176
2023-10-07T03:25:25.351Z,10.185000
2023-10-07T03:30:25.230Z,10.050000
2023-10-07T03:35:37.431Z,9.970833
2023-10-07T03:40:25.323Z,9.975000
2023-10-07T03:45:49.433Z,10.000000
2023-10-07T03:50:37.218Z,9.817647
2023-10-07T03:55:37.345Z,9.885714
2023-10-07T04:00:25.460Z,9.905000
2023-10-07T04:05:25.293Z,9.723810
2023-10-07T04:10:25.285Z,9.557143
2023-10-07T04:15:25.309Z,9.730000
2023-10-07T04:20:37.226Z,9.736364
2023-10-07T04:25:25.301Z,9.713043
2023-10-07T04:30:25.340Z,9.880952
2023-10-07T04:35:25.196Z,10.152632
2023-10-07T04:40:25.240Z,10.633333
2023-10-07T04:45:25.677Z,11.372222
2023-10-07T04:50:25.294Z,11.809524
2023-10-07T04:55:25.171Z,12.370000
2023-10-07T05:00:25.207Z,13.361905
2023-10-07T05:05:25.334Z,14.335000
2023-10-07T05:10:25.269Z,14.961111
2023-10-07T05:15:25.290Z,15.500000
2023-10-07T05:20:25.286Z,16.054545
2023-10-07T05:25:25.299Z,17.184211
2023-10-07T05:30:25.228Z,17.386364
2023-10-07T05:35:25.256Z,16.769565
2023-10-07T05:40:37.311Z,16.490000
2023-10-07T05:45:25.286Z,16.222727
2023-10-07T05:50:25.393Z,16.595455
2023-10-07T05:55:25.155Z,17.068421
2023-10-07T06:00:25.204Z,17.931818
2023-10-07T06:05:37.303Z,18.477273
2023-10-07T06:10:25.244Z,19.682609
2023-10-07T06:15:25.275Z,20.835000
2023-10-07T06:20:25.193Z,21.700000
2023-10-07T06:25:25.572Z,20.452381
2023-10-07T06:30:25.273Z,20.052632
2023-10-07T06:35:25.312Z,19.984211
2023-10-07T06:40:37.479Z,20.005000
2023-10-07T06:45:25.310Z,19.760000
2023-10-07T06:50:25.147Z,19.872727
2023-10-07T06:55:25.292Z,20.231579
2023-10-07T07:00:25.214Z,20.250000
2023-10-07T07:05:25.482Z,19.805000
2023-10-07T07:10:25.251Z,19.686957
2023-10-07T07:15:25.264Z,19.633333
2023-10-07T07:20:25.260Z,19.555556
2023-10-07T07:25:25.258Z,19.575000
2023-10-07T07:30:25.213Z,19.858824
2023-10-07T07:35:25.269Z,19.884211
2023-10-07T07:40:37.320Z,20.050000
2023-10-07T07:45:25.219Z,19.704762
2023-10-07T07:50:25.132Z,19.477778
2023-10-07T07:55:26.156Z,19.520833
2023-10-07T08:00:25.515Z,20.219048
2023-10-07T08:05:25.451Z,20.309524
2023-10-07T08:10:25.177Z,20.288889
2023-10-07T08:15:38.706Z,20.055556
2023-10-07T08:20:25.171Z,19.736842
2023-10-07T08:25:25.260Z,19.800000
2023-10-07T08:30:25.257Z,19.909524
2023-10-07T08:35:25.316Z,19.800000
2023-10-07T08:40:25.120Z,19.755000
2023-10-07T08:45:25.186Z,19.738095
2023-10-07T08:50:25.190Z,19.580952
2023-10-07T08:55:26.908Z,19.961111
2023-10-07T09:00:25.284Z,20.268750
2023-10-07T09:05:49.201Z,20.233333
2023-10-07T09:10:25.289Z,20.365000
2023-10-07T09:15:25.364Z,20.327273
2023-10-07T09:20:37.218Z,20.460870
2023-10-07T09:25:25.206Z,20.538095
2023-10-07T09:30:25.316Z,20.522727
2023-10-07T09:35:25.246Z,20.633333
2023-10-07T09:40:25.111Z,20.561905
2023-10-07T09:45:25.203Z,20.515000
2023-10-07T09:51:01.154Z,20.671429
2023-10-07T09:55:25.198Z,20.395000
2023-10-07T10:00:25.216Z,20.260870
2023-10-07T10:05:25.175Z,20.090476
2023-10-07T10:10:25.435Z,20.206667
2023-10-07T10:15:25.236Z,20.526316
2023-10-07T10:20:49.159Z,20.284000
2023-10-07T10:25:37.190Z,20.442857
2023-10-07T10:30:25.367Z,20.565000
2023-10-07T10:35:37.216Z,20.511765
2023-10-07T10:40:25.191Z,20.505000
2023-10-07T10:45:25.186Z,20.790476
2023-10-07T10:50:25.441Z,20.516667
2023-10-07T10:55:25.134Z,20.682609
2023-10-07T11:00:37.169Z,20.657895
2023-10-07T11:05:37.311Z,20.489474
2023-10-07T11:10:37.225Z,20.426316
2023-10-07T11:15:37.296Z,20.583333
2023-10-07T11:20:25.292Z,20.460000
2023-10-07T11:25:25.086Z,20.670000
2023-10-07T11:30:25.139Z,21.014286
2023-10-07T11:35:25.242Z,21.325000
2023-10-07T11:40:37.286Z,21.171429
2023-10-07T11:45:25.223Z,21.033333
2023-10-07T11:50:25.313Z,20.990000
2023-10-07T11:55:25.126Z,20.831818
2023-10-07T12:00:37.347Z,20.900000
2023-10-07T12:05:37.286Z,20.894118
2023-10-07T12:10:25.186Z,21.026087
2023-10-07T12:15:25.143Z,20.812500
2023-10-07T12:20:25.156Z,20.859091
2023-10-07T12:25:25.201Z,21.250000
2023-10-07T12:30:25.154Z,20.850000
2023-10-07T12:35:25.504Z,21.038889
2023-10-07T12:40:25.180Z,21.238095
2023-10-07T12:45:25.201Z,21.080000
2023-10-07T12:50:25.886Z,21.023810
2023-10-07T12:55:25.140Z,20.904762
2023-10-07T13:00:25.149Z,21.076923
2023-10-07T13:05:37.373Z,20.856522
2023-10-07T13:10:25.158Z,20.911111
2023-10-07T13:15:25.213Z,20.770588
2023-10-07T13:20:25.227Z,20.683333
2023-10-07T13:25:25.133Z,20.810526
2023-10-07T13:30:25.160Z,20.761905
2023-10-07T13:35:25.391Z,20.547619
2023-10-07T13:40:25.194Z,20.662500
2023-10-07T13:45:25.167Z,20.675000
2023-10-07T13:50:25.145Z,20.677778
2023-10-07T13:55:25.142Z,20.525000
2023-10-07T14:00:25.297Z,20.426316
2023-10-07T14:05:25.325Z,20.645455
2023-10-07T14:10:25.106Z,20.700000
2023-10-07T14:15:25.087Z,20.547826
2023-10-07T14:20:25.219Z,20.713636
2023-10-07T14:25:49.169Z,20.557895
2023-10-07T14:30:25.130Z,20.565000
2023-10-07T14:35:25.157Z,20.386364
2023-10-07T14:40:25.095Z,20.210526
2023-10-07T14:45:25.161Z,19.773684
2023-10-07T14:50:25.161Z,19.695455
2023-10-07T14:55:25.078Z,19.576190
2023-10-07T15:00:25.156Z,19.566667
2023-10-07T15:05:25.261Z,19.485714
2023-10-07T15:10:25.085Z,19.430000
2023-10-07T15:15:25.098Z,19.395238
2023-10-07T15:20:25.184Z,19.372222
2023-10-07T15:25:25.120Z,19.300000
2023-10-07T15:30:25.135Z,19.315000
2023-10-07T15:35:37.271Z,19.295000
2023-10-07T15:40:25.071Z,19.315789
2023-10-07T15:45:25.154Z,19.294444
2023-10-07T15:50:25.178Z,19.300000
2023-10-07T15:55:36.992Z,19.290000
2023-10-07T16:00:25.128Z,19.316667
2023-10-07T16:05:25.241Z,19.271429
2023-10-07T16:10:25.178Z,19.280952
2023-10-07T16:15:25.092Z,19.290476
2023-10-07T16:20:49.179Z,19.309091
2023-10-07T16:25:25.112Z,19.222222
2023-10-07T16:30:25.032Z,19.163636
2023-10-07T16:35:37.159Z,19.181818
2023-10-07T16:40:37.363Z,19.145000
2023-10-07T16:45:25.152Z,19.244444
2023-10-07T16:50:25.134Z,19.205000
2023-10-07T16:55:25.261Z,19.135000
2023-10-07T17:00:25.230Z,19.145000
2023-10-07T17:05:25.074Z,19.163158
2023-10-07T17:10:25.089Z,19.154545
2023-10-07T17:15:25.158Z,18.904545
2023-10-07T17:20:37.322Z,18.736364
2023-10-07T17:25:49.255Z,18.526316
2023-10-07T17:30:25.051Z,18.300000
2023-10-07T17:35:25.200Z,18.180952
2023-10-07T17:40:25.330Z,18.150000
2023-10-07T17:45:25.200Z,18.330000
2023-10-07T17:50:25.282Z,18.258333
2023-10-07T17:55:25.006Z,18.163158
2023-10-07T18:00:25.280Z,18.110526
2023-10-07T18:05:25.162Z,18.038095
2023-10-07T18:10:25.219Z,17.952174
2023-10-07T18:15:25.114Z,17.822727
2023-10-07T18:20:37.059Z,17.635000
2023-10-07T18:25:24.990Z,17.571429
2023-10-07T18:30:37.083Z,17.590476
2023-10-07T18:35:25.120Z,17.550000
2023-10-07T18:40:25.191Z,17.826316
2023-10-07T18:45:25.138Z,18.068421
2023-10-07T18:50:25.045Z,18.227273
2023-10-07T18:55:25.127Z,18.278261
2023-10-07T19:00:25.040Z,18.004762
2023-10-07T19:05:25.150Z,17.578947
2023-10-07T19:10:25.100Z,17.226087
2023-10-07T19:15:25.192Z,16.882609
2023-10-07T19:20:24.976Z,16.626316
2023-10-07T19:25:24.985Z,16.227273
2023-10-07T19:30:25.082Z,15.991667
2023-10-07T19:35:25.178Z,15.813043
2023-10-07T19:40:25.140Z,15.934783
2023-10-07T19:45:37.003Z,15.926316
2023-10-07T19:50:25.497Z,15.978947
2023-10-07T19:55:25.058Z,16.333333
2023-10-07T20:00:25.102Z,16.820000
2023-10-07T20:05:25.348Z,16.869565
2023-10-07T20:10:25.149Z,16.595238
2023-10-07T20:15:24.944Z,16.426316
2023-10-07T20:20:25.107Z,16.394737
2023-10-07T20:25:25.114Z,16.183333
2023-10-07T20:30:25.074Z,16.147619
2023-10-07T20:35:25.046Z,16.342857
2023-10-07T20:40:49.053Z,16.482353
2023-10-07T20:45:25.203Z,16.276471
2023-10-07T20:50:25.085Z,16.155000
2023-10-07T20:55:49.134Z,15.928571
2023-10-07T21:00:25.078Z,15.704762
2023-10-07T21:05:25.364Z,15.721739
2023-10-07T21:10:25.118Z,15.635294
2023-10-07T21:15:25.147Z,15.571429
2023-10-07T21:20:25.195Z,15.784211
2023-10-07T21:25:24.990Z,15.884211
2023-10-07T21:30:25.048Z,15.931818
2023-10-07T21:35:25.119Z,16.021053
2023-10-07T21:40:24.964Z,16.278261
2023-10-07T21:45:24.965Z,16.089474
2023-10-07T21:50:25.131Z,15.736364
2023-10-07T21:55:25.063Z,15.472727
2023-10-07T22:00:25.087Z,15.157895
2023-10-07T22:05:25.170Z,15.005263
2023-10-07T22:10:24.979Z,14.865000
2023-10-07T22:15:25.018Z,14.634783
2023-10-07T22:20:25.056Z,14.504545
2023-10-07T22:25:25.024Z,14.458333
2023-10-07T22:30:25.271Z,14.450000
2023-10-07T22:35:40.526Z,14.808000
2023-10-07T22:40:37.037Z,14.726316
2023-10-07T22:45:37.356Z,14.616667
2023-10-07T22:50:25.014Z,14.695833
2023-10-07T22:55:24.983Z,15.008333
2023-10-07T23:00:25.104Z,15.226667
2023-10-07T23:05:25.191Z,15.120000
2023-10-07T23:10:37.247Z,14.895000
2023-10-07T23:15:25.006Z,14.580952
2023-10-07T23:20:25.031Z,14.586364
2023-10-07T23:25:25.044Z,14.800000
2023-10-07T23:30:25.313Z,15.317391
2023-10-07T23:35:24.999Z,15.615000
2023-10-07T23:40:24.934Z,15.842857
2023-10-07T23:45:24.976Z,16.000000
2023-10-07T23:50:25.327Z,15.930000
2023-10-07T23:55:25.049Z,15.878261
